createdAt,value
2023-02-24T00:01:37.222Z,0.60
2023-02-24T00:04:20.523Z,0.68
2023-02-24T00:07:03.539Z,0.82
2023-02-24T00:09:46.583Z,0.70
2023-02-24T00:12:29.205Z,0.65
2023-02-24T00:15:13.224Z,0.55
2023-02-24T00:17:55.860Z,0.70
2023-02-24T00:20:38.507Z,0.68
2023-02-24T00:23:23.626Z,0.63
2023-02-24T00:26:06.833Z,0.82
2023-02-24T00:28:49.479Z,0.68
2023-02-24T00:31:33.822Z,0.63
2023-02-24T00:34:16.579Z,0.80
2023-02-24T00:36:59.598Z,0.60
2023-02-24T00:39:44.228Z,0.60
2023-02-24T00:42:26.895Z,0.60
2023-02-24T00:45:10.216Z,0.70
2023-02-24T00:47:57.568Z,0.63
2023-02-24T00:50:40.172Z,0.45
2023-02-24T00:53:24.908Z,0.70
2023-02-24T00:56:08.207Z,0.80
2023-02-24T00:58:50.829Z,0.73
2023-02-24T01:01:35.021Z,0.85
2023-02-24T01:04:20.073Z,0.82
2023-02-24T01:07:03.645Z,0.93
2023-02-24T01:09:46.871Z,0.63
2023-02-24T01:12:49.742Z,0.60
2023-02-24T01:15:32.505Z,0.70
2023-02-24T01:18:15.067Z,1.00
2023-02-24T01:21:00.436Z,0.90
2023-02-24T01:23:43.570Z,0.65
2023-02-24T01:26:26.833Z,0.77
2023-02-24T01:29:10.588Z,0.77
2023-02-24T01:31:56.168Z,0.70
2023-02-24T01:34:39.158Z,0.80
2023-02-24T01:37:24.004Z,0.60
2023-02-24T01:40:11.814Z,0.70
2023-02-24T01:42:54.443Z,0.70
2023-02-24T01:45:39.838Z,0.70
2023-02-24T01:48:22.406Z,0.80
2023-02-24T01:51:05.095Z,0.75
2023-02-24T01:53:49.340Z,0.80
2023-02-24T01:56:32.301Z,0.90
2023-02-24T01:59:15.973Z,0.90
2023-02-24T02:02:06.799Z,0.70
2023-02-24T02:04:51.626Z,0.70
2023-02-24T02:07:34.435Z,0.80
2023-02-24T02:10:19.836Z,0.70
2023-02-24T02:13:04.558Z,0.95
2023-02-24T02:15:52.161Z,0.70
2023-02-24T02:18:43.276Z,0.70
2023-02-24T02:21:39.983Z,0.75
2023-02-24T02:24:30.029Z,1.00
2023-02-24T02:27:25.972Z,1.13
2023-02-24T02:30:32.346Z,0.82
2023-02-24T02:33:33.781Z,0.88
2023-02-24T02:36:23.354Z,0.77
2023-02-24T02:39:12.168Z,0.70
2023-02-24T02:42:01.485Z,0.80
2023-02-24T02:44:55.769Z,0.85
2023-02-24T02:47:41.280Z,0.80
2023-02-24T02:50:27.036Z,0.77
2023-02-24T02:53:14.117Z,0.80
2023-02-24T02:55:59.911Z,0.90
2023-02-24T02:58:46.056Z,0.82
2023-02-24T03:01:30.256Z,0.60
2023-02-24T03:04:16.957Z,0.70
2023-02-24T03:07:02.787Z,0.70
2023-02-24T03:09:49.525Z,0.90
2023-02-24T03:12:37.288Z,0.70
2023-02-24T03:15:23.332Z,1.00
2023-02-24T03:18:10.323Z,0.70
2023-02-24T03:20:57.280Z,0.70
2023-02-24T03:23:45.337Z,0.77
2023-02-24T03:26:31.664Z,0.80
2023-02-24T03:29:18.263Z,1.13
2023-02-24T03:32:04.779Z,0.60
2023-02-24T03:34:50.671Z,0.70
2023-02-24T03:37:33.596Z,0.80
2023-02-24T03:40:16.927Z,0.70
2023-02-24T03:43:05.336Z,0.73
2023-02-24T03:45:48.528Z,1.02
2023-02-24T03:48:31.270Z,0.90
2023-02-24T03:51:16.492Z,0.80
2023-02-24T03:54:08.953Z,0.73
2023-02-24T03:57:00.658Z,0.80
2023-02-24T03:59:52.995Z,0.63
2023-02-24T04:02:36.133Z,0.60
2023-02-24T04:05:22.017Z,0.60
2023-02-24T04:08:10.208Z,0.70
2023-02-24T04:10:58.087Z,0.73
2023-02-24T04:13:46.060Z,1.00
2023-02-24T04:16:39.981Z,0.70
2023-02-24T04:19:26.177Z,0.52
2023-02-24T04:22:11.601Z,0.77
2023-02-24T04:24:56.407Z,0.70
2023-02-24T04:27:39.411Z,0.80
2023-02-24T04:30:32.110Z,0.80
2023-02-24T04:33:16.235Z,0.70
2023-02-24T04:35:59.189Z,1.00
2023-02-24T04:38:42.925Z,0.80
2023-02-24T04:41:25.716Z,0.70
2023-02-24T04:44:08.304Z,0.60
2023-02-24T04:46:51.282Z,0.55
2023-02-24T04:49:35.230Z,0.60
2023-02-24T04:52:20.718Z,0.90
2023-02-24T04:55:09.984Z,0.80
2023-02-24T04:57:53.702Z,0.50
2023-02-24T05:00:36.329Z,0.57
2023-02-24T05:03:20.535Z,1.10
2023-02-24T05:06:06.302Z,0.90
2023-02-24T05:08:51.973Z,0.90
2023-02-24T05:11:34.862Z,0.60
2023-02-24T05:14:18.572Z,0.70
2023-02-24T05:17:02.145Z,0.80
2023-02-24T05:20:02.178Z,0.80
2023-02-24T05:22:51.674Z,0.70
2023-02-24T05:25:37.668Z,0.90
2023-02-24T05:28:23.083Z,0.70
2023-02-24T05:31:08.355Z,0.60
2023-02-24T05:33:54.504Z,0.80
2023-02-24T05:36:40.161Z,0.80
2023-02-24T05:39:26.669Z,0.60
2023-02-24T05:42:09.302Z,0.70
2023-02-24T05:44:53.232Z,0.80
2023-02-24T05:47:37.073Z,0.70
2023-02-24T05:50:26.266Z,0.60
2023-02-24T05:53:09.932Z,0.60
2023-02-24T05:55:53.878Z,0.85
2023-02-24T05:58:39.187Z,1.05
2023-02-24T06:01:23.038Z,0.80
2023-02-24T06:04:06.818Z,0.88
2023-02-24T06:06:52.433Z,0.85
2023-02-24T06:09:40.092Z,0.95
2023-02-24T06:12:25.521Z,1.10
2023-02-24T06:15:09.415Z,0.73
2023-02-24T06:17:52.006Z,0.82
2023-02-24T06:20:35.408Z,1.00
2023-02-24T06:23:19.407Z,0.73
2023-02-24T06:26:04.036Z,0.90
2023-02-24T06:28:48.693Z,0.60
2023-02-24T06:31:31.326Z,0.70
2023-02-24T06:34:14.873Z,0.60
2023-02-24T06:36:58.623Z,0.70
2023-02-24T06:39:41.666Z,0.88
2023-02-24T06:42:24.330Z,1.15
2023-02-24T06:45:09.109Z,0.73
2023-02-24T06:47:51.810Z,0.75
2023-02-24T06:50:34.445Z,0.68
2023-02-24T06:53:18.635Z,0.70
2023-02-24T06:56:15.759Z,0.80
2023-02-24T06:58:58.981Z,1.05
2023-02-24T07:01:47.056Z,0.75
2023-02-24T07:04:29.966Z,0.90
2023-02-24T07:07:14.196Z,1.10
2023-02-24T07:09:57.741Z,0.90
2023-02-24T07:12:41.208Z,0.90
2023-02-24T07:15:23.819Z,1.02
2023-02-24T07:18:14.696Z,0.80
2023-02-24T07:21:05.040Z,0.80
2023-02-24T07:23:49.640Z,0.88
2023-02-24T07:26:32.261Z,1.00
2023-02-24T07:29:16.637Z,0.80
2023-02-24T07:32:01.474Z,0.90
2023-02-24T07:34:45.627Z,0.73
2023-02-24T07:37:31.612Z,0.70
2023-02-24T07:40:17.236Z,0.80
2023-02-24T07:43:00.484Z,1.00
2023-02-24T07:45:43.206Z,1.05
2023-02-24T07:48:26.580Z,0.57
2023-02-24T07:51:11.834Z,0.80
2023-02-24T07:53:56.685Z,0.90
2023-02-24T07:56:46.219Z,0.90
2023-02-24T07:59:30.019Z,0.70
2023-02-24T08:02:13.685Z,0.75
2023-02-24T08:04:56.323Z,0.73
2023-02-24T08:07:40.341Z,0.73
2023-02-24T08:10:25.598Z,0.77
2023-02-24T08:13:11.942Z,0.70
2023-02-24T08:15:57.837Z,0.65
2023-02-24T08:18:40.554Z,0.80
2023-02-24T08:21:23.653Z,0.73
2023-02-24T08:24:09.267Z,0.70
2023-02-24T08:27:04.335Z,0.82
2023-02-24T08:29:58.830Z,0.65
2023-02-24T08:32:43.717Z,0.70
2023-02-24T08:35:31.970Z,0.60
2023-02-24T08:38:16.298Z,0.70
2023-02-24T08:41:04.837Z,0.70
2023-02-24T08:43:48.891Z,0.60
2023-02-24T08:46:37.816Z,0.75
2023-02-24T08:49:20.652Z,0.70
2023-02-24T08:52:06.661Z,0.70
2023-02-24T08:54:49.896Z,0.90
2023-02-24T08:57:35.921Z,0.65
2023-02-24T09:00:39.115Z,0.70
2023-02-24T09:03:33.725Z,0.70
2023-02-24T09:06:17.823Z,0.65
2023-02-24T09:09:17.773Z,0.70
2023-02-24T09:12:01.905Z,0.60
2023-02-24T09:14:45.973Z,0.68
2023-02-24T09:17:50.144Z,0.98
2023-02-24T09:20:50.332Z,0.82
2023-02-24T09:23:45.870Z,0.80
2023-02-24T09:26:32.629Z,0.90
2023-02-24T09:29:29.207Z,1.10
2023-02-24T09:32:14.961Z,1.02
2023-02-24T09:34:57.710Z,1.20
2023-02-24T09:37:41.299Z,1.10
2023-02-24T09:40:49.081Z,1.35
2023-02-24T09:43:40.174Z,1.60
2023-02-24T09:46:23.083Z,1.13
2023-02-24T09:49:12.902Z,1.30
2023-02-24T09:52:00.609Z,1.20
2023-02-24T09:54:53.102Z,1.38
2023-02-24T09:57:55.152Z,1.40
2023-02-24T10:00:44.111Z,1.50
2023-02-24T10:03:42.696Z,1.40
2023-02-24T10:06:35.244Z,1.40
2023-02-24T10:09:24.600Z,1.40
2023-02-24T10:12:11.694Z,1.20
2023-02-24T10:15:17.184Z,1.40
2023-02-24T10:18:03.957Z,1.10
2023-02-24T10:20:49.369Z,0.93
2023-02-24T10:23:45.025Z,1.00
2023-02-24T10:26:32.964Z,0.70
2023-02-24T10:29:28.070Z,0.80
2023-02-24T10:32:23.474Z,0.80
2023-02-24T10:35:07.104Z,0.80
2023-02-24T10:37:50.237Z,0.90
2023-02-24T10:40:46.203Z,0.90
2023-02-24T10:43:31.609Z,1.00
2023-02-24T10:46:38.554Z,0.98
2023-02-24T10:49:24.797Z,0.95
2023-02-24T10:52:09.424Z,1.08
2023-02-24T10:55:05.298Z,0.90
2023-02-24T10:57:59.319Z,0.85
2023-02-24T11:01:12.451Z,1.00
2023-02-24T11:04:02.285Z,0.90
2023-02-24T11:06:55.485Z,0.90
2023-02-24T11:09:44.109Z,0.90
2023-02-24T11:12:44.520Z,1.30
2023-02-24T11:15:48.499Z,1.00
2023-02-24T11:18:35.568Z,1.00
2023-02-24T11:21:18.784Z,0.80
2023-02-24T11:24:02.829Z,1.08
2023-02-24T11:26:46.265Z,0.70
2023-02-24T11:29:35.085Z,0.90
2023-02-24T11:32:25.562Z,0.90
2023-02-24T11:35:12.976Z,0.90
2023-02-24T11:38:01.779Z,1.10
2023-02-24T11:40:48.299Z,0.88
2023-02-24T11:43:32.570Z,1.15
2023-02-24T11:46:17.071Z,1.27
2023-02-24T11:49:03.311Z,1.10
2023-02-24T11:51:46.083Z,0.90
2023-02-24T11:54:31.167Z,0.95
2023-02-24T11:57:16.466Z,1.17
2023-02-24T12:00:04.809Z,1.00
2023-02-24T12:02:55.229Z,1.08
2023-02-24T12:05:40.929Z,1.25
2023-02-24T12:08:28.334Z,1.10
2023-02-24T12:11:14.130Z,1.10
2023-02-24T12:14:00.807Z,0.90
2023-02-24T12:16:47.755Z,1.13
2023-02-24T12:19:33.202Z,1.05
2023-02-24T12:22:17.365Z,1.30
2023-02-24T12:25:00.004Z,1.20
2023-02-24T12:27:48.248Z,1.00
2023-02-24T12:30:48.579Z,1.27
2023-02-24T12:33:37.434Z,1.00
2023-02-24T12:36:29.231Z,1.27
2023-02-24T12:39:18.170Z,1.30
2023-02-24T12:42:04.137Z,0.93
2023-02-24T12:44:49.651Z,0.90
2023-02-24T12:47:39.177Z,0.75
2023-02-24T12:50:26.745Z,0.70
2023-02-24T12:53:13.656Z,0.63
2023-02-24T12:56:03.907Z,0.60
2023-02-24T12:58:47.284Z,0.70
2023-02-24T13:01:34.987Z,1.17
2023-02-24T13:04:25.971Z,1.10
2023-02-24T13:07:13.709Z,1.13
2023-02-24T13:10:02.138Z,1.10
2023-02-24T13:12:49.186Z,1.63
2023-02-24T13:15:32.184Z,1.52
2023-02-24T13:18:23.867Z,1.77
2023-02-24T13:21:08.359Z,1.98
2023-02-24T13:23:57.432Z,2.00
2023-02-24T13:26:40.556Z,2.05
2023-02-24T13:29:24.599Z,1.90
2023-02-24T13:32:07.317Z,1.65
2023-02-24T13:34:51.615Z,1.90
2023-02-24T13:37:35.746Z,1.52
2023-02-24T13:40:23.301Z,1.58
2023-02-24T13:43:06.170Z,1.70
2023-02-24T13:45:55.472Z,1.85
2023-02-24T13:48:50.309Z,1.58
2023-02-24T13:51:50.635Z,1.30
2023-02-24T13:54:42.621Z,1.30
2023-02-24T13:57:52.497Z,1.25
2023-02-24T14:00:42.042Z,1.13
2023-02-24T14:03:27.984Z,1.55
2023-02-24T14:06:15.749Z,0.90
2023-02-24T14:08:59.773Z,1.10
2023-02-24T14:11:42.892Z,0.98
2023-02-24T14:14:26.221Z,1.60
2023-02-24T14:17:19.826Z,1.10
2023-02-24T14:20:21.590Z,1.00
2023-02-24T14:23:19.176Z,1.10
2023-02-24T14:26:03.027Z,0.93
2023-02-24T14:28:51.831Z,1.50
2023-02-24T14:31:34.768Z,0.82
2023-02-24T14:34:19.761Z,0.95
2023-02-24T14:37:04.763Z,0.80
2023-02-24T14:39:50.666Z,1.30
2023-02-24T14:42:33.340Z,1.00
2023-02-24T14:45:20.682Z,1.00
2023-02-24T14:48:03.326Z,0.90
2023-02-24T14:50:46.257Z,1.10
2023-02-24T14:53:32.107Z,1.00
2023-02-24T14:56:14.958Z,1.13
2023-02-24T14:58:59.474Z,0.85
2023-02-24T15:01:44.223Z,0.80
2023-02-24T15:04:31.555Z,0.73
2023-02-24T15:07:18.096Z,0.55
2023-02-24T15:10:04.182Z,0.70
2023-02-24T15:12:48.235Z,0.60
2023-02-24T15:15:31.459Z,0.80
2023-02-24T15:18:21.617Z,0.60
2023-02-24T15:21:05.342Z,0.90
2023-02-24T15:23:48.554Z,0.60
2023-02-24T15:26:33.497Z,0.77
2023-02-24T15:29:21.774Z,0.90
2023-02-24T15:32:07.174Z,0.60
2023-02-24T15:34:49.998Z,0.70
2023-02-24T15:37:36.791Z,1.00
2023-02-24T15:40:21.723Z,1.10
2023-02-24T15:43:10.737Z,0.60
2023-02-24T15:45:53.367Z,0.77
2023-02-24T15:48:35.987Z,0.95
2023-02-24T15:51:21.994Z,0.60
2023-02-24T15:54:05.954Z,0.85
2023-02-24T15:56:49.609Z,0.93
2023-02-24T15:59:33.918Z,0.77
2023-02-24T16:02:18.345Z,1.10
2023-02-24T16:05:00.971Z,0.93
2023-02-24T16:07:44.619Z,0.90
2023-02-24T16:10:28.983Z,0.75
2023-02-24T16:13:16.459Z,1.08
2023-02-24T16:16:00.470Z,1.10
2023-02-24T16:18:43.295Z,0.90
2023-02-24T16:21:25.951Z,1.15
2023-02-24T16:24:08.627Z,1.02
2023-02-24T16:26:51.367Z,1.20
2023-02-24T16:29:34.190Z,1.17
2023-02-24T16:32:18.425Z,1.15
2023-02-24T16:35:01.116Z,1.05
2023-02-24T16:37:46.475Z,1.55
2023-02-24T16:40:31.090Z,0.90
2023-02-24T16:43:14.296Z,1.13
2023-02-24T16:46:01.484Z,1.00
2023-02-24T16:48:46.717Z,1.15
2023-02-24T16:51:31.156Z,1.00
2023-02-24T16:54:13.795Z,1.02
2023-02-24T16:56:56.455Z,1.30
2023-02-24T16:59:39.070Z,1.00
2023-02-24T17:02:23.937Z,1.00
2023-02-24T17:05:08.636Z,1.30
2023-02-24T17:07:52.336Z,1.10
2023-02-24T17:10:39.051Z,1.00
2023-02-24T17:13:22.274Z,1.23
2023-02-24T17:16:05.204Z,1.20
2023-02-24T17:18:47.842Z,1.50
2023-02-24T17:21:31.822Z,1.48
2023-02-24T17:24:15.835Z,1.63
2023-02-24T17:26:59.813Z,1.20
2023-02-24T17:29:42.723Z,1.30
2023-02-24T17:32:25.588Z,1.63
2023-02-24T17:35:08.577Z,1.40
2023-02-24T17:37:52.540Z,1.70
2023-02-24T17:40:35.342Z,1.48
2023-02-24T17:43:17.983Z,1.60
2023-02-24T17:46:04.506Z,1.45
2023-02-24T17:48:48.442Z,1.83
2023-02-24T17:51:31.044Z,1.88
2023-02-24T17:54:15.045Z,1.77
2023-02-24T17:56:57.869Z,2.00
2023-02-24T17:59:40.485Z,1.98
2023-02-24T18:02:24.085Z,1.90
2023-02-24T18:05:06.941Z,1.70
2023-02-24T18:07:49.542Z,1.45
2023-02-24T18:10:33.739Z,1.92
2023-02-24T18:13:16.378Z,1.90
2023-02-24T18:15:59.063Z,2.38
2023-02-24T18:18:41.936Z,2.15
2023-02-24T18:21:24.550Z,2.53
2023-02-24T18:24:07.456Z,2.20
2023-02-24T18:26:51.476Z,2.08
2023-02-24T18:29:34.261Z,2.28
2023-02-24T18:32:17.143Z,1.92
2023-02-24T18:34:59.976Z,2.80
2023-02-24T18:37:43.555Z,2.70
2023-02-24T18:40:26.653Z,2.20
2023-02-24T18:43:10.794Z,2.28
2023-02-24T18:45:56.819Z,2.42
2023-02-24T18:48:40.583Z,2.55
2023-02-24T18:51:23.638Z,2.22
2023-02-24T18:54:06.300Z,2.58
2023-02-24T18:56:49.062Z,2.25
2023-02-24T18:59:33.193Z,2.70
2023-02-24T19:02:15.831Z,2.30
2023-02-24T19:04:58.665Z,2.90
2023-02-24T19:07:41.339Z,2.05
2023-02-24T19:10:24.356Z,2.38
2023-02-24T19:13:07.039Z,2.58
2023-02-24T19:15:51.004Z,2.10
2023-02-24T19:18:33.933Z,2.38
2023-02-24T19:21:16.607Z,2.50
2023-02-24T19:24:00.590Z,2.47
2023-02-24T19:26:44.343Z,2.10
2023-02-24T19:29:28.083Z,2.55
2023-02-24T19:32:12.416Z,2.05
2023-02-24T19:34:55.105Z,2.65
2023-02-24T19:37:37.761Z,2.53
2023-02-24T19:40:21.683Z,2.22
2023-02-24T19:43:04.433Z,3.08
2023-02-24T19:45:47.158Z,2.05
2023-02-24T19:48:31.252Z,2.25
2023-02-24T19:51:14.884Z,1.95
2023-02-24T19:53:58.196Z,2.20
2023-02-24T19:56:41.235Z,2.00
2023-02-24T19:59:24.514Z,1.98
2023-02-24T20:02:07.206Z,1.92
2023-02-24T20:04:51.323Z,2.10
2023-02-24T20:07:34.531Z,2.10
2023-02-24T20:10:17.613Z,1.92
2023-02-24T20:13:00.275Z,2.13
2023-02-24T20:15:42.913Z,1.80
2023-02-24T20:18:25.552Z,1.67
2023-02-24T20:21:10.152Z,1.70
2023-02-24T20:23:52.822Z,1.80
2023-02-24T20:26:36.414Z,1.55
2023-02-24T20:29:20.657Z,1.40
2023-02-24T20:32:04.078Z,1.38
2023-02-24T20:34:46.842Z,1.77
2023-02-24T20:37:30.820Z,1.40
2023-02-24T20:40:13.715Z,1.73
2023-02-24T20:42:56.338Z,1.50
2023-02-24T20:45:40.871Z,1.55
2023-02-24T20:48:23.650Z,1.73
2023-02-24T20:51:06.899Z,1.63
2023-02-24T20:53:57.850Z,1.60
2023-02-24T20:56:41.929Z,1.25
2023-02-24T20:59:24.568Z,1.08
2023-02-24T21:02:07.280Z,1.30
2023-02-24T21:04:49.980Z,1.40
2023-02-24T21:07:32.795Z,1.05
2023-02-24T21:10:17.228Z,1.20
2023-02-24T21:12:59.933Z,1.02
2023-02-24T21:15:50.070Z,1.15
2023-02-24T21:18:32.830Z,1.05
2023-02-24T21:21:16.063Z,1.30
2023-02-24T21:23:58.690Z,1.17
2023-02-24T21:26:42.696Z,1.23
2023-02-24T21:29:25.360Z,1.13
2023-02-24T21:32:08.097Z,1.30
2023-02-24T21:34:50.960Z,1.00
2023-02-24T21:37:35.200Z,1.35
2023-02-24T21:40:18.029Z,0.88
2023-02-24T21:43:02.111Z,1.40
2023-02-24T21:45:45.297Z,1.20
2023-02-24T21:48:27.925Z,0.70
2023-02-24T21:51:11.972Z,0.80
2023-02-24T21:53:56.044Z,0.73
2023-02-24T21:56:39.262Z,0.47
2023-02-24T21:59:23.368Z,0.73
2023-02-24T22:02:06.039Z,0.57
2023-02-24T22:04:48.668Z,0.75
2023-02-24T22:07:31.318Z,0.70
2023-02-24T22:10:14.923Z,0.50
2023-02-24T22:12:57.688Z,0.50
2023-02-24T22:15:41.711Z,0.43
2023-02-24T22:18:24.606Z,0.40
2023-02-24T22:21:08.309Z,0.40
2023-02-24T22:23:51.816Z,0.50
2023-02-24T22:26:34.577Z,0.50
2023-02-24T22:29:17.200Z,0.47
2023-02-24T22:32:01.288Z,0.60
2023-02-24T22:34:44.112Z,0.50
2023-02-24T22:37:26.730Z,0.40
2023-02-24T22:40:10.165Z,0.50
2023-02-24T22:42:52.776Z,0.65
2023-02-24T22:45:35.410Z,0.55
2023-02-24T22:48:19.381Z,0.60
2023-02-24T22:51:02.666Z,0.38
2023-02-24T22:53:47.349Z,0.57
2023-02-24T22:56:30.273Z,0.52
2023-02-24T22:59:13.508Z,0.70
2023-02-24T23:01:56.125Z,0.50
2023-02-24T23:04:40.709Z,0.50
2023-02-24T23:07:23.341Z,0.60
2023-02-24T23:10:06.574Z,0.52
2023-02-24T23:12:49.520Z,0.50
2023-02-24T23:15:38.841Z,0.57
2023-02-24T23:18:21.492Z,0.63
2023-02-24T23:21:06.607Z,0.60
2023-02-24T23:23:49.376Z,0.60
2023-02-24T23:26:32.290Z,0.52
2023-02-24T23:29:15.944Z,0.60
2023-02-24T23:31:58.725Z,0.50
2023-02-24T23:34:41.689Z,0.57
2023-02-24T23:37:26.116Z,0.73
2023-02-24T23:40:09.780Z,0.50
2023-02-24T23:42:52.685Z,0.55
2023-02-24T23:45:37.633Z,0.57
2023-02-24T23:48:20.799Z,0.50
2023-02-24T23:51:03.530Z,0.70
2023-02-24T23:53:48.348Z,0.60
2023-02-24T23:56:31.907Z,0.70
2023-02-24T23:59:14.623Z,0.60
